createdAt,value
2023-09-01T00:00:51.495Z,100386.50
2023-09-01T00:03:55.152Z,100385.34
2023-09-01T00:07:02.254Z,100385.03
2023-09-01T00:10:06.693Z,100387.38
2023-09-01T00:13:10.088Z,100391.81
2023-09-01T00:16:13.351Z,100385.56
2023-09-01T00:19:20.448Z,100387.06
2023-09-01T00:22:23.022Z,100398.31
2023-09-01T00:25:25.955Z,100393.13
2023-09-01T00:28:28.961Z,100393.53
2023-09-01T00:31:43.921Z,100397.13
2023-09-01T00:34:46.522Z,100398.28
2023-09-01T00:37:51.433Z,100393.75
2023-09-01T00:40:54.792Z,100401.84
2023-09-01T00:43:58.959Z,100404.59
2023-09-01T00:47:02.114Z,100407.94
2023-09-01T00:50:18.604Z,100411.72
2023-09-01T00:53:22.954Z,100405.41
2023-09-01T00:56:28.563Z,100403.25
2023-09-01T00:59:31.840Z,100398.59
2023-09-01T01:02:34.580Z,100400.47
2023-09-01T01:05:57.893Z,100403.53
2023-09-01T01:09:22.196Z,100406.13
2023-09-01T01:12:47.161Z,100400.09
2023-09-01T01:15:56.841Z,100405.50
2023-09-01T01:19:06.150Z,100406.78
2023-09-01T01:22:10.274Z,100405.69
2023-09-01T01:25:14.441Z,100403.19
2023-09-01T01:28:20.825Z,100408.88
2023-09-01T01:31:24.048Z,100406.09
2023-09-01T01:34:37.413Z,100404.44
2023-09-01T01:37:58.004Z,100401.00
2023-09-01T01:41:12.562Z,100411.16
2023-09-01T01:44:17.918Z,100401.78
2023-09-01T01:47:25.553Z,100393.63
2023-09-01T01:50:28.170Z,100394.59
2023-09-01T01:53:31.549Z,100402.47
2023-09-01T01:56:43.179Z,100400.00
2023-09-01T01:59:46.765Z,100406.22
2023-09-01T02:02:50.889Z,100408.44
2023-09-01T02:05:57.095Z,100420.78
2023-09-01T02:09:11.136Z,100423.56
2023-09-01T02:12:27.524Z,100425.09
2023-09-01T02:15:33.677Z,100426.75
2023-09-01T02:18:39.205Z,100429.63
2023-09-01T02:21:41.772Z,100433.66
2023-09-01T02:24:46.727Z,100433.66
2023-09-01T02:27:55.124Z,100435.88
2023-09-01T02:30:57.836Z,100432.97
2023-09-01T02:34:01.466Z,100428.53
2023-09-01T02:37:05.791Z,100427.59
2023-09-01T02:40:12.930Z,100428.69
2023-09-01T02:43:18.696Z,100432.69
2023-09-01T02:46:27.929Z,100431.16
2023-09-01T02:49:39.995Z,100433.53
2023-09-01T02:52:42.856Z,100427.41
2023-09-01T02:56:08.733Z,100437.00
2023-09-01T02:59:13.889Z,100433.91
2023-09-01T03:02:47.196Z,100431.31
2023-09-01T03:06:00.996Z,100428.06
2023-09-01T03:09:04.842Z,100428.34
2023-09-01T03:12:09.234Z,100430.16
2023-09-01T03:15:12.913Z,100428.41
2023-09-01T03:18:19.432Z,100429.78
2023-09-01T03:21:37.020Z,100427.97
2023-09-01T03:24:54.168Z,100436.16
2023-09-01T11:03:55.794Z,100540.38
2023-09-01T11:06:58.412Z,100532.31
2023-09-01T11:10:07.214Z,100535.66
2023-09-01T11:13:17.508Z,100528.47
2023-09-01T11:16:20.263Z,100531.34
2023-09-01T11:19:22.978Z,100529.66
2023-09-01T11:22:26.537Z,100521.22
2023-09-01T11:25:29.842Z,100530.09
2023-09-01T11:28:34.893Z,100520.78
2023-09-01T11:31:46.842Z,100525.94
2023-09-01T11:34:51.426Z,100521.87
2023-09-01T11:37:57.141Z,100521.25
2023-09-01T11:41:08.923Z,100524.97
2023-09-01T11:44:12.181Z,100525.19
2023-09-01T11:47:27.021Z,100519.44
2023-09-01T11:50:41.771Z,100519.63
2023-09-01T11:53:45.456Z,100512.41
2023-09-01T11:56:53.715Z,100509.09
2023-09-01T12:00:06.004Z,100506.97
2023-09-01T12:06:56.235Z,100509.94
2023-09-01T12:10:23.842Z,100508.81
2023-09-01T12:13:40.418Z,100500.69
2023-09-01T12:16:44.264Z,100500.00
2023-09-01T12:19:59.760Z,100507.59
2023-09-01T12:23:05.199Z,100493.91
2023-09-01T12:26:08.185Z,100488.09
2023-09-01T12:29:10.637Z,100487.50
2023-09-01T12:32:13.086Z,100491.03
2023-09-01T12:35:21.751Z,100493.03
2023-09-01T12:38:31.207Z,100490.56
2023-09-01T12:41:39.816Z,100482.44
2023-09-01T12:44:42.164Z,100490.44
2023-09-01T12:47:47.494Z,100483.19
2023-09-01T12:50:51.795Z,100485.50
2023-09-01T12:53:54.107Z,100484.69
2023-09-01T12:57:18.584Z,100479.75
2023-09-01T13:00:22.561Z,100475.56
2023-09-01T13:03:36.412Z,100472.28
2023-09-01T13:06:39.042Z,100479.62
2023-09-01T13:09:51.445Z,100473.66
2023-09-01T13:12:54.007Z,100482.47
2023-09-01T13:16:19.996Z,100481.41
2023-09-01T13:19:29.376Z,100483.16
2023-09-01T13:22:32.970Z,100478.28
2023-09-01T13:25:37.912Z,100477.56
2023-09-01T13:28:43.992Z,100471.28
2023-09-01T13:31:46.625Z,100462.12
2023-09-01T13:34:51.508Z,100460.34
2023-09-01T13:37:54.406Z,100463.06
2023-09-01T13:41:01.884Z,100450.78
2023-09-01T13:44:08.726Z,100451.75
2023-09-01T13:47:11.460Z,100446.44
2023-09-01T13:50:15.160Z,100453.19
2023-09-01T13:53:23.647Z,100449.72
2023-09-01T13:56:27.507Z,100447.53
2023-09-01T13:59:30.177Z,100452.41
2023-09-01T14:02:34.282Z,100452.22
2023-09-01T14:05:36.774Z,100452.16
2023-09-01T14:08:40.861Z,100445.12
2023-09-01T14:11:45.761Z,100444.69
2023-09-01T14:14:51.094Z,100444.25
2023-09-01T14:17:53.738Z,100453.59
2023-09-01T14:21:03.874Z,100452.78
2023-09-01T14:24:15.542Z,100444.06
2023-09-01T14:27:18.249Z,100444.13
2023-09-01T14:30:21.629Z,100439.41
2023-09-01T14:33:33.886Z,100443.75
2023-09-01T14:36:44.810Z,100443.00
2023-09-01T14:40:04.136Z,100448.00
2023-09-01T14:43:06.994Z,100449.16
2023-09-01T14:46:10.195Z,100436.56
2023-09-01T14:49:16.060Z,100444.06
2023-09-01T14:52:25.784Z,100439.03
2023-09-01T14:55:31.354Z,100427.22
2023-09-01T14:58:37.133Z,100438.28
2023-09-01T15:01:41.281Z,100422.47
2023-09-01T15:04:48.512Z,100424.44
2023-09-01T15:07:51.324Z,100428.47
2023-09-01T15:10:55.780Z,100424.44
2023-09-01T15:14:03.649Z,100422.75
2023-09-01T15:17:11.457Z,100423.37
2023-09-01T15:20:17.619Z,100422.81
2023-09-01T15:23:20.496Z,100420.78
2023-09-01T15:26:30.878Z,100424.47
2023-09-01T15:29:34.893Z,100417.91
2023-09-01T15:32:38.048Z,100419.78
2023-09-01T15:35:48.894Z,100410.31
2023-09-01T15:38:53.259Z,100413.78
2023-09-01T15:42:02.834Z,100409.69
2023-09-01T15:45:07.776Z,100419.53
2023-09-01T15:48:12.399Z,100415.47
2023-09-01T15:51:31.361Z,100409.03
2023-09-01T15:55:05.698Z,100406.34
2023-09-01T15:58:10.666Z,100408.62
2023-09-01T16:01:26.893Z,100410.31
2023-09-01T16:04:33.344Z,100403.31
2023-09-01T16:07:43.458Z,100406.41
2023-09-01T16:11:23.067Z,100409.28
2023-09-01T16:14:27.509Z,100402.50
2023-09-01T16:17:45.390Z,100399.03
2023-09-01T16:20:50.840Z,100405.47
2023-09-01T16:23:58.502Z,100405.03
2023-09-01T16:27:01.874Z,100406.87
2023-09-01T16:30:06.578Z,100397.41
2023-09-01T16:33:15.225Z,100409.75
2023-09-01T16:36:20.660Z,100401.75
2023-09-01T16:39:27.599Z,100399.03
2023-09-01T16:42:33.443Z,100406.16
2023-09-01T16:45:44.672Z,100391.94
2023-09-01T16:48:50.525Z,100396.19
2023-09-01T16:51:53.761Z,100389.81
2023-09-01T16:54:57.226Z,100398.97
2023-09-01T16:58:05.039Z,100399.87
2023-09-01T17:01:08.413Z,100389.72
2023-09-01T17:04:19.232Z,100393.31
2023-09-01T17:07:31.056Z,100394.66
2023-09-01T17:10:34.861Z,100400.22
2023-09-01T17:13:39.919Z,100398.84
2023-09-01T17:16:43.701Z,100405.25
2023-09-01T17:19:46.338Z,100414.09
2023-09-01T17:22:55.089Z,100404.72
2023-09-01T17:25:58.190Z,100410.25
2023-09-01T17:29:02.200Z,100406.59
2023-09-01T17:32:09.068Z,100414.22
2023-09-01T17:35:12.400Z,100406.72
2023-09-01T17:38:16.817Z,100411.69
2023-09-01T17:41:37.539Z,100420.09
2023-09-01T17:44:42.126Z,100419.59
2023-09-01T17:47:46.258Z,100417.91
2023-09-01T17:50:50.589Z,100421.28
2023-09-01T17:53:57.452Z,100425.03
2023-09-01T17:57:01.107Z,100426.59
2023-09-01T18:00:06.713Z,100429.84
2023-09-01T18:03:11.205Z,100423.63
2023-09-01T18:06:16.084Z,100423.19
2023-09-01T18:09:19.290Z,100429.56
2023-09-01T18:12:25.550Z,100435.72
2023-09-01T18:15:28.326Z,100433.47
2023-09-01T18:18:31.322Z,100441.28
2023-09-01T18:21:43.336Z,100441.34
2023-09-01T18:24:46.990Z,100440.06
2023-09-01T18:27:50.124Z,100441.41
2023-09-01T18:30:56.746Z,100449.88
2023-09-01T18:34:03.485Z,100451.25
2023-09-01T18:37:06.803Z,100454.09
2023-09-01T18:40:28.611Z,100458.56
2023-09-01T18:43:32.056Z,100458.25
2023-09-01T18:46:37.203Z,100459.41
2023-09-01T18:49:43.161Z,100460.56
2023-09-01T18:52:58.186Z,100458.91
2023-09-01T18:56:02.448Z,100461.22
2023-09-01T18:59:06.553Z,100461.38
2023-09-01T19:02:32.922Z,100465.38
2023-09-01T19:05:40.542Z,100468.88
2023-09-01T19:08:45.688Z,100463.91
2023-09-01T19:11:49.133Z,100474.66
2023-09-01T19:14:59.727Z,100469.84
2023-09-01T19:18:15.070Z,100468.69
2023-09-01T19:21:24.544Z,100472.38
2023-09-01T19:24:33.719Z,100473.00
2023-09-01T19:30:55.505Z,100473.53
2023-09-01T19:34:04.666Z,100473.34
2023-09-01T19:37:08.298Z,100475.50
2023-09-01T19:40:12.337Z,100471.34
2023-09-01T19:43:16.330Z,100482.72
2023-09-01T19:46:21.469Z,100479.38
2023-09-01T19:49:33.140Z,100477.87
2023-09-01T19:52:36.474Z,100469.78
2023-09-01T19:55:49.040Z,100475.56
2023-09-01T19:59:07.592Z,100474.72
2023-09-01T20:02:20.489Z,100465.09
2023-09-01T20:05:25.050Z,100481.97
2023-09-01T20:08:28.001Z,100475.06
2023-09-01T20:11:30.958Z,100475.66
2023-09-01T20:14:34.798Z,100479.44
2023-09-01T20:17:38.497Z,100487.34
2023-09-01T20:20:43.687Z,100486.69
2023-09-01T20:23:51.305Z,100484.91
2023-09-01T20:26:56.329Z,100491.75
2023-09-01T20:30:07.815Z,100497.09
2023-09-01T20:33:18.315Z,100496.91
2023-09-01T20:36:23.729Z,100495.91
2023-09-01T20:39:29.183Z,100496.59
2023-09-01T20:42:31.674Z,100495.09
2023-09-01T20:45:34.287Z,100498.37
2023-09-01T20:48:42.567Z,100490.75
2023-09-01T20:51:52.894Z,100487.75
2023-09-01T20:54:55.743Z,100487.94
2023-09-01T20:58:06.496Z,100497.34
2023-09-01T21:01:10.743Z,100497.44
2023-09-01T21:04:14.525Z,100493.97
2023-09-01T21:07:17.579Z,100498.94
2023-09-01T21:10:21.178Z,100500.44
2023-09-01T21:13:24.831Z,100497.63
2023-09-01T21:16:28.775Z,100506.75
2023-09-01T21:19:35.139Z,100504.16
2023-09-01T21:22:38.305Z,100509.81
2023-09-01T21:25:40.856Z,100511.44
2023-09-01T21:28:44.869Z,100511.81
2023-09-01T21:31:48.127Z,100510.63
2023-09-01T21:34:54.521Z,100511.09
2023-09-01T21:38:01.358Z,100507.63
2023-09-01T21:41:11.015Z,100517.66
2023-09-01T21:44:16.654Z,100517.47
2023-09-01T21:47:23.816Z,100512.97
2023-09-01T21:50:28.362Z,100507.09
2023-09-01T21:53:33.529Z,100508.25
2023-09-01T21:56:40.295Z,100501.47
2023-09-01T21:59:43.716Z,100513.16
2023-09-01T22:02:46.795Z,100516.25
2023-09-01T22:05:51.330Z,100520.12
2023-09-01T22:08:56.986Z,100520.06
2023-09-01T22:12:00.894Z,100517.91
2023-09-01T22:15:04.373Z,100520.53
2023-09-01T22:18:10.960Z,100524.31
2023-09-01T22:21:14.448Z,100527.09
2023-09-01T22:24:19.634Z,100532.25
2023-09-01T22:27:24.963Z,100521.81
2023-09-01T22:30:36.857Z,100526.41
2023-09-01T22:33:40.158Z,100526.28
2023-09-01T22:36:42.758Z,100529.44
2023-09-01T22:39:46.369Z,100533.59
2023-09-01T22:42:58.243Z,100528.69
2023-09-01T22:46:03.246Z,100539.41
2023-09-01T22:49:17.852Z,100533.59
2023-09-01T22:52:24.992Z,100536.41
2023-09-01T22:55:29.048Z,100535.41
2023-09-01T22:58:34.530Z,100537.06
2023-09-01T23:01:37.603Z,100544.31
2023-09-01T23:04:41.428Z,100535.34
2023-09-01T23:07:46.426Z,100534.28
2023-09-01T23:10:52.430Z,100539.03
2023-09-01T23:13:59.510Z,100533.91
2023-09-01T23:17:06.860Z,100535.19
2023-09-01T23:20:11.165Z,100534.44
2023-09-01T23:23:15.380Z,100539.34
2023-09-01T23:26:35.255Z,100534.38
2023-09-01T23:29:42.632Z,100540.91
2023-09-01T23:32:46.776Z,100542.19
2023-09-01T23:35:50.248Z,100547.19
2023-09-01T23:38:54.153Z,100542.72
2023-09-01T23:42:00.499Z,100542.78
2023-09-01T23:45:06.314Z,100534.91
2023-09-01T23:48:09.209Z,100537.16
2023-09-01T23:51:12.833Z,100530.50
2023-09-01T23:54:15.522Z,100526.75
2023-09-01T23:57:18.968Z,100537.97
